sensor_id;sensor_type;location;lat;lon;timestamp;temperature;humidity
66213;SHT31;53015;50.046;8.238;2022-11-20T00:00:37;3.91;87.43
66213;SHT31;53015;50.046;8.238;2022-11-20T00:03:02;3.79;86.81
66213;SHT31;53015;50.046;8.238;2022-11-20T00:05:27;3.60;86.86
66213;SHT31;53015;50.046;8.238;2022-11-20T00:07:52;3.53;87.77
66213;SHT31;53015;50.046;8.238;2022-11-20T00:10:21;3.62;88.88
66213;SHT31;53015;50.046;8.238;2022-11-20T00:12:46;3.56;88.56
66213;SHT31;53015;50.046;8.238;2022-11-20T00:15:11;3.53;88.79
66213;SHT31;53015;50.046;8.238;2022-11-20T00:17:37;3.52;89.25
66213;SHT31;53015;50.046;8.238;2022-11-20T00:20:02;3.52;89.65
66213;SHT31;53015;50.046;8.238;2022-11-20T00:22:27;3.58;89.69
66213;SHT31;53015;50.046;8.238;2022-11-20T00:24:53;3.58;89.86
66213;SHT31;53015;50.046;8.238;2022-11-20T00:27:21;3.52;89.98
66213;SHT31;53015;50.046;8.238;2022-11-20T00:29:46;3.58;90.19
66213;SHT31;53015;50.046;8.238;2022-11-20T00:32:11;3.52;89.55
66213;SHT31;53015;50.046;8.238;2022-11-20T00:34:37;3.46;89.92
66213;SHT31;53015;50.046;8.238;2022-11-20T00:37:02;3.35;90.46
66213;SHT31;53015;50.046;8.238;2022-11-20T00:39:27;3.26;90.41
66213;SHT31;53015;50.046;8.238;2022-11-20T00:41:52;3.40;90.55
66213;SHT31;53015;50.046;8.238;2022-11-20T00:44:18;3.51;90.70
66213;SHT31;53015;50.046;8.238;2022-11-20T00:46:43;3.56;90.49
66213;SHT31;53015;50.046;8.238;2022-11-20T00:49:08;3.67;90.79
66213;SHT31;53015;50.046;8.238;2022-11-20T00:51:34;3.72;90.64
66213;SHT31;53015;50.046;8.238;2022-11-20T00:53:59;3.55;90.53
66213;SHT31;53015;50.046;8.238;2022-11-20T00:56:25;3.55;91.00
66213;SHT31;53015;50.046;8.238;2022-11-20T00:58:50;3.56;90.73
66213;SHT31;53015;50.046;8.238;2022-11-20T01:01:20;3.73;90.52
66213;SHT31;53015;50.046;8.238;2022-11-20T01:03:47;3.64;90.99
66213;SHT31;53015;50.046;8.238;2022-11-20T01:08:37;3.51;90.57
66213;SHT31;53015;50.046;8.238;2022-11-20T01:11:04;3.58;91.19
66213;SHT31;53015;50.046;8.238;2022-11-20T01:13:30;3.59;92.04
66213;SHT31;53015;50.046;8.238;2022-11-20T01:16:06;3.52;91.59
66213;SHT31;53015;50.046;8.238;2022-11-20T01:18:32;3.49;91.00
66213;SHT31;53015;50.046;8.238;2022-11-20T01:21:13;3.40;91.51
66213;SHT31;53015;50.046;8.238;2022-11-20T01:23:40;3.38;92.06
66213;SHT31;53015;50.046;8.238;2022-11-20T01:26:06;3.39;91.51
66213;SHT31;53015;50.046;8.238;2022-11-20T01:28:32;3.55;91.65
66213;SHT31;53015;50.046;8.238;2022-11-20T01:30:58;3.49;91.15
66213;SHT31;53015;50.046;8.238;2022-11-20T01:33:23;3.46;90.47
66213;SHT31;53015;50.046;8.238;2022-11-20T01:35:49;3.49;90.88
66213;SHT31;53015;50.046;8.238;2022-11-20T01:38:15;3.59;90.93
66213;SHT31;53015;50.046;8.238;2022-11-20T01:40:40;3.52;91.19
66213;SHT31;53015;50.046;8.238;2022-11-20T01:43:18;3.59;91.20
66213;SHT31;53015;50.046;8.238;2022-11-20T01:48:12;3.22;91.98
66213;SHT31;53015;50.046;8.238;2022-11-20T01:50:37;3.21;92.47
66213;SHT31;53015;50.046;8.238;2022-11-20T01:53:06;3.40;92.24
66213;SHT31;53015;50.046;8.238;2022-11-20T01:55:36;3.43;92.03
66213;SHT31;53015;50.046;8.238;2022-11-20T01:58:04;3.38;92.78
66213;SHT31;53015;50.046;8.238;2022-11-20T02:00:29;3.49;92.49
66213;SHT31;53015;50.046;8.238;2022-11-20T02:02:56;3.51;92.49
66213;SHT31;53015;50.046;8.238;2022-11-20T02:05:30;3.55;92.53
66213;SHT31;53015;50.046;8.238;2022-11-20T02:07:57;3.63;92.19
66213;SHT31;53015;50.046;8.238;2022-11-20T02:10:24;3.59;91.09
66213;SHT31;53015;50.046;8.238;2022-11-20T02:12:49;3.63;91.19
66213;SHT31;53015;50.046;8.238;2022-11-20T02:15:33;3.76;91.23
66213;SHT31;53015;50.046;8.238;2022-11-20T02:17:59;3.81;91.16
66213;SHT31;53015;50.046;8.238;2022-11-20T02:20:24;3.64;90.23
66213;SHT31;53015;50.046;8.238;2022-11-20T02:22:59;3.52;90.30
66213;SHT31;53015;50.046;8.238;2022-11-20T02:25:27;3.58;90.75
66213;SHT31;53015;50.046;8.238;2022-11-20T02:27:54;3.51;90.65
66213;SHT31;53015;50.046;8.238;2022-11-20T02:30:19;3.70;90.85
66213;SHT31;53015;50.046;8.238;2022-11-20T02:32:44;3.77;90.36
66213;SHT31;53015;50.046;8.238;2022-11-20T02:35:37;3.80;90.60
66213;SHT31;53015;50.046;8.238;2022-11-20T02:37:55;3.64;90.05
66213;SHT31;53015;50.046;8.238;2022-11-20T02:40:21;3.60;90.32
66213;SHT31;53015;50.046;8.238;2022-11-20T02:42:47;3.45;90.10
66213;SHT31;53015;50.046;8.238;2022-11-20T02:45:12;3.38;91.22
66213;SHT31;53015;50.046;8.238;2022-11-20T02:47:37;3.29;92.16
66213;SHT31;53015;50.046;8.238;2022-11-20T02:50:03;3.31;92.27
66213;SHT31;53015;50.046;8.238;2022-11-20T02:52:29;3.39;92.50
66213;SHT31;53015;50.046;8.238;2022-11-20T02:54:54;3.60;92.75
66213;SHT31;53015;50.046;8.238;2022-11-20T02:57:20;3.66;92.75
66213;SHT31;53015;50.046;8.238;2022-11-20T02:59:45;3.59;92.40
66213;SHT31;53015;50.046;8.238;2022-11-20T03:02:10;3.72;92.56
66213;SHT31;53015;50.046;8.238;2022-11-20T03:04:36;3.73;91.96
66213;SHT31;53015;50.046;8.238;2022-11-20T03:07:01;3.76;91.71
66213;SHT31;53015;50.046;8.238;2022-11-20T03:09:26;3.72;91.90
66213;SHT31;53015;50.046;8.238;2022-11-20T03:11:51;3.72;92.03
66213;SHT31;53015;50.046;8.238;2022-11-20T03:14:17;3.72;91.69
66213;SHT31;53015;50.046;8.238;2022-11-20T03:16:42;3.66;92.18
66213;SHT31;53015;50.046;8.238;2022-11-20T03:19:08;3.70;91.48
66213;SHT31;53015;50.046;8.238;2022-11-20T03:21:33;3.69;91.56
66213;SHT31;53015;50.046;8.238;2022-11-20T03:23:59;3.70;91.20
66213;SHT31;53015;50.046;8.238;2022-11-20T03:26:25;3.70;91.06
66213;SHT31;53015;50.046;8.238;2022-11-20T03:28:51;3.67;91.70
66213;SHT31;53015;50.046;8.238;2022-11-20T03:31:18;3.69;92.15
66213;SHT31;53015;50.046;8.238;2022-11-20T03:33:44;3.66;92.44
66213;SHT31;53015;50.046;8.238;2022-11-20T03:36:11;3.67;92.05
66213;SHT31;53015;50.046;8.238;2022-11-20T03:38:37;3.77;92.89
66213;SHT31;53015;50.046;8.238;2022-11-20T03:41:03;3.74;92.75
66213;SHT31;53015;50.046;8.238;2022-11-20T03:43:29;3.70;93.12
66213;SHT31;53015;50.046;8.238;2022-11-20T03:45:54;3.70;92.47
66213;SHT31;53015;50.046;8.238;2022-11-20T03:48:19;3.72;91.92
66213;SHT31;53015;50.046;8.238;2022-11-20T03:50:45;3.74;91.54
66213;SHT31;53015;50.046;8.238;2022-11-20T03:53:13;3.81;91.97
66213;SHT31;53015;50.046;8.238;2022-11-20T03:55:38;3.70;91.98
66213;SHT31;53015;50.046;8.238;2022-11-20T03:58:03;3.81;91.94
66213;SHT31;53015;50.046;8.238;2022-11-20T04:00:29;3.87;91.23
66213;SHT31;53015;50.046;8.238;2022-11-20T04:02:57;3.83;91.27
66213;SHT31;53015;50.046;8.238;2022-11-20T04:05:22;3.89;91.80
66213;SHT31;53015;50.046;8.238;2022-11-20T04:07:47;3.86;91.20
66213;SHT31;53015;50.046;8.238;2022-11-20T04:10:13;3.79;91.69
66213;SHT31;53015;50.046;8.238;2022-11-20T04:12:38;3.76;92.05
66213;SHT31;53015;50.046;8.238;2022-11-20T04:15:03;3.70;91.68
66213;SHT31;53015;50.046;8.238;2022-11-20T04:17:29;3.67;91.81
66213;SHT31;53015;50.046;8.238;2022-11-20T04:19:54;3.79;92.03
66213;SHT31;53015;50.046;8.238;2022-11-20T04:22:19;3.84;92.08
66213;SHT31;53015;50.046;8.238;2022-11-20T04:24:44;3.89;92.07
66213;SHT31;53015;50.046;8.238;2022-11-20T04:27:10;3.94;91.95
66213;SHT31;53015;50.046;8.238;2022-11-20T04:29:35;3.94;91.80
66213;SHT31;53015;50.046;8.238;2022-11-20T04:32:00;3.79;92.39
66213;SHT31;53015;50.046;8.238;2022-11-20T04:34:26;3.77;92.27
66213;SHT31;53015;50.046;8.238;2022-11-20T04:36:51;3.77;92.64
66213;SHT31;53015;50.046;8.238;2022-11-20T04:39:16;3.83;91.92
66213;SHT31;53015;50.046;8.238;2022-11-20T04:41:42;3.90;92.75
66213;SHT31;53015;50.046;8.238;2022-11-20T04:44:07;3.93;91.94
66213;SHT31;53015;50.046;8.238;2022-11-20T04:46:37;4.01;91.27
66213;SHT31;53015;50.046;8.238;2022-11-20T04:49:03;3.95;91.56
66213;SHT31;53015;50.046;8.238;2022-11-20T04:51:28;3.95;91.59
66213;SHT31;53015;50.046;8.238;2022-11-20T04:53:54;3.86;91.90
66213;SHT31;53015;50.046;8.238;2022-11-20T04:56:19;3.93;91.85
66213;SHT31;53015;50.046;8.238;2022-11-20T04:58:44;4.01;92.06
66213;SHT31;53015;50.046;8.238;2022-11-20T05:01:14;3.76;91.33
66213;SHT31;53015;50.046;8.238;2022-11-20T05:03:40;3.64;92.37
66213;SHT31;53015;50.046;8.238;2022-11-20T05:06:06;3.69;92.76
66213;SHT31;53015;50.046;8.238;2022-11-20T05:08:32;3.73;93.10
66213;SHT31;53015;50.046;8.238;2022-11-20T05:11:01;3.80;93.05
66213;SHT31;53015;50.046;8.238;2022-11-20T05:13:27;3.93;92.93
66213;SHT31;53015;50.046;8.238;2022-11-20T05:15:52;3.98;93.03
66213;SHT31;53015;50.046;8.238;2022-11-20T05:18:17;3.91;92.40
66213;SHT31;53015;50.046;8.238;2022-11-20T05:20:42;4.00;92.53
66213;SHT31;53015;50.046;8.238;2022-11-20T05:23:08;3.90;92.10
66213;SHT31;53015;50.046;8.238;2022-11-20T05:25:33;3.93;92.27
66213;SHT31;53015;50.046;8.238;2022-11-20T05:27:58;3.79;92.42
66213;SHT31;53015;50.046;8.238;2022-11-20T05:30:23;3.83;92.76
66213;SHT31;53015;50.046;8.238;2022-11-20T05:32:49;3.87;92.61
66213;SHT31;53015;50.046;8.238;2022-11-20T05:35:14;3.89;92.74
66213;SHT31;53015;50.046;8.238;2022-11-20T05:37:39;3.87;92.09
66213;SHT31;53015;50.046;8.238;2022-11-20T05:40:05;3.81;92.26
66213;SHT31;53015;50.046;8.238;2022-11-20T05:42:31;3.94;92.66
66213;SHT31;53015;50.046;8.238;2022-11-20T05:44:57;4.00;91.90
66213;SHT31;53015;50.046;8.238;2022-11-20T05:47:22;4.04;92.32
66213;SHT31;53015;50.046;8.238;2022-11-20T05:49:47;4.10;92.30
66213;SHT31;53015;50.046;8.238;2022-11-20T05:52:13;4.00;92.46
66213;SHT31;53015;50.046;8.238;2022-11-20T05:54:38;4.11;91.96
66213;SHT31;53015;50.046;8.238;2022-11-20T05:57:03;3.98;92.03
66213;SHT31;53015;50.046;8.238;2022-11-20T05:59:28;3.77;91.54
66213;SHT31;53015;50.046;8.238;2022-11-20T06:01:54;3.66;92.34
66213;SHT31;53015;50.046;8.238;2022-11-20T06:04:19;3.66;92.67
66213;SHT31;53015;50.046;8.238;2022-11-20T06:06:44;3.69;92.66
66213;SHT31;53015;50.046;8.238;2022-11-20T06:09:10;3.76;92.28
66213;SHT31;53015;50.046;8.238;2022-11-20T06:11:35;3.56;91.98
66213;SHT31;53015;50.046;8.238;2022-11-20T06:14:00;3.67;92.60
66213;SHT31;53015;50.046;8.238;2022-11-20T06:16:25;3.66;91.84
66213;SHT31;53015;50.046;8.238;2022-11-20T06:18:51;3.53;92.46
66213;SHT31;53015;50.046;8.238;2022-11-20T06:21:17;3.51;92.91
66213;SHT31;53015;50.046;8.238;2022-11-20T06:23:43;3.48;93.17
66213;SHT31;53015;50.046;8.238;2022-11-20T06:26:09;3.64;93.31
66213;SHT31;53015;50.046;8.238;2022-11-20T06:28:35;3.60;93.37
66213;SHT31;53015;50.046;8.238;2022-11-20T06:31:01;3.64;93.09
66213;SHT31;53015;50.046;8.238;2022-11-20T06:33:26;3.89;92.88
66213;SHT31;53015;50.046;8.238;2022-11-20T06:35:52;3.84;92.40
66213;SHT31;53015;50.046;8.238;2022-11-20T06:38:17;3.87;92.63
66213;SHT31;53015;50.046;8.238;2022-11-20T06:40:43;4.02;92.45
66213;SHT31;53015;50.046;8.238;2022-11-20T06:43:11;4.08;92.61
66213;SHT31;53015;50.046;8.238;2022-11-20T06:45:36;4.00;92.69
66213;SHT31;53015;50.046;8.238;2022-11-20T06:48:02;4.07;92.78
66213;SHT31;53015;50.046;8.238;2022-11-20T06:50:27;4.07;92.47
66213;SHT31;53015;50.046;8.238;2022-11-20T06:52:52;4.02;92.20
66213;SHT31;53015;50.046;8.238;2022-11-20T06:55:18;4.07;92.06
66213;SHT31;53015;50.046;8.238;2022-11-20T06:57:43;3.98;92.03
66213;SHT31;53015;50.046;8.238;2022-11-20T07:00:08;3.98;91.85
66213;SHT31;53015;50.046;8.238;2022-11-20T07:02:34;3.94;91.88
66213;SHT31;53015;50.046;8.238;2022-11-20T07:04:59;3.87;92.00
66213;SHT31;53015;50.046;8.238;2022-11-20T07:07:25;3.91;92.28
66213;SHT31;53015;50.046;8.238;2022-11-20T07:09:50;3.98;92.50
66213;SHT31;53015;50.046;8.238;2022-11-20T07:12:15;4.14;92.21
66213;SHT31;53015;50.046;8.238;2022-11-20T07:14:41;4.14;91.93
66213;SHT31;53015;50.046;8.238;2022-11-20T07:17:06;4.02;92.63
66213;SHT31;53015;50.046;8.238;2022-11-20T07:19:31;4.10;92.51
66213;SHT31;53015;50.046;8.238;2022-11-20T07:21:56;4.17;92.64
66213;SHT31;53015;50.046;8.238;2022-11-20T07:24:22;4.12;92.17
66213;SHT31;53015;50.046;8.238;2022-11-20T07:26:47;4.15;92.24
66213;SHT31;53015;50.046;8.238;2022-11-20T07:29:16;4.19;92.16
66213;SHT31;53015;50.046;8.238;2022-11-20T07:31:42;4.19;91.39
66213;SHT31;53015;50.046;8.238;2022-11-20T07:34:07;4.22;91.82
66213;SHT31;53015;50.046;8.238;2022-11-20T07:36:34;4.32;92.46
66213;SHT31;53015;50.046;8.238;2022-11-20T07:38:59;4.35;92.71
66213;SHT31;53015;50.046;8.238;2022-11-20T07:41:25;4.41;92.90
66213;SHT31;53015;50.046;8.238;2022-11-20T07:43:50;4.45;92.51
66213;SHT31;53015;50.046;8.238;2022-11-20T07:46:15;4.46;92.22
66213;SHT31;53015;50.046;8.238;2022-11-20T07:48:40;4.57;91.81
66213;SHT31;53015;50.046;8.238;2022-11-20T07:51:06;4.73;91.33
66213;SHT31;53015;50.046;8.238;2022-11-20T07:53:31;4.72;91.27
66213;SHT31;53015;50.046;8.238;2022-11-20T07:56:00;4.67;91.38
66213;SHT31;53015;50.046;8.238;2022-11-20T07:58:26;4.77;91.36
66213;SHT31;53015;50.046;8.238;2022-11-20T08:00:51;4.73;91.76
66213;SHT31;53015;50.046;8.238;2022-11-20T08:03:16;4.87;91.24
66213;SHT31;53015;50.046;8.238;2022-11-20T08:05:42;4.81;91.75
66213;SHT31;53015;50.046;8.238;2022-11-20T08:08:07;5.00;91.18
66213;SHT31;53015;50.046;8.238;2022-11-20T08:10:33;4.97;90.98
66213;SHT31;53015;50.046;8.238;2022-11-20T08:12:58;4.98;90.68
66213;SHT31;53015;50.046;8.238;2022-11-20T08:15:47;5.04;91.27
66213;SHT31;53015;50.046;8.238;2022-11-20T08:18:13;5.12;90.68
66213;SHT31;53015;50.046;8.238;2022-11-20T08:20:38;5.17;89.98
66213;SHT31;53015;50.046;8.238;2022-11-20T08:23:04;5.21;90.93
66213;SHT31;53015;50.046;8.238;2022-11-20T08:25:33;5.32;90.48
66213;SHT31;53015;50.046;8.238;2022-11-20T08:28:00;5.45;89.63
66213;SHT31;53015;50.046;8.238;2022-11-20T08:30:25;5.42;89.45
66213;SHT31;53015;50.046;8.238;2022-11-20T08:32:51;5.39;90.01
66213;SHT31;53015;50.046;8.238;2022-11-20T08:35:16;5.38;89.61
66213;SHT31;53015;50.046;8.238;2022-11-20T08:37:41;5.35;89.09
66213;SHT31;53015;50.046;8.238;2022-11-20T08:40:10;5.17;89.04
66213;SHT31;53015;50.046;8.238;2022-11-20T08:42:36;5.14;89.08
66213;SHT31;53015;50.046;8.238;2022-11-20T08:45:01;5.12;90.18
66213;SHT31;53015;50.046;8.238;2022-11-20T08:47:26;5.15;90.10
66213;SHT31;53015;50.046;8.238;2022-11-20T08:49:52;5.24;89.71
66213;SHT31;53015;50.046;8.238;2022-11-20T08:52:17;5.15;89.37
66213;SHT31;53015;50.046;8.238;2022-11-20T08:54:42;5.12;89.51
66213;SHT31;53015;50.046;8.238;2022-11-20T08:57:08;5.18;90.69
66213;SHT31;53015;50.046;8.238;2022-11-20T08:59:33;5.12;89.77
66213;SHT31;53015;50.046;8.238;2022-11-20T09:01:58;5.21;90.28
66213;SHT31;53015;50.046;8.238;2022-11-20T09:04:23;5.32;89.78
66213;SHT31;53015;50.046;8.238;2022-11-20T09:06:49;5.39;89.04
66213;SHT31;53015;50.046;8.238;2022-11-20T09:09:16;5.34;88.92
66213;SHT31;53015;50.046;8.238;2022-11-20T09:11:41;5.38;89.53
66213;SHT31;53015;50.046;8.238;2022-11-20T09:14:06;5.41;89.57
66213;SHT31;53015;50.046;8.238;2022-11-20T09:16:32;5.60;87.85
66213;SHT31;53015;50.046;8.238;2022-11-20T09:18:57;5.35;89.52
66213;SHT31;53015;50.046;8.238;2022-11-20T09:21:22;5.17;89.80
66213;SHT31;53015;50.046;8.238;2022-11-20T09:23:48;5.30;89.36
66213;SHT31;53015;50.046;8.238;2022-11-20T09:26:14;5.42;89.87
66213;SHT31;53015;50.046;8.238;2022-11-20T09:28:39;5.43;90.49
66213;SHT31;53015;50.046;8.238;2022-11-20T09:31:08;5.52;90.21
66213;SHT31;53015;50.046;8.238;2022-11-20T09:33:34;5.48;89.85
66213;SHT31;53015;50.046;8.238;2022-11-20T09:35:59;5.39;88.34
66213;SHT31;53015;50.046;8.238;2022-11-20T09:38:25;5.36;89.41
66213;SHT31;53015;50.046;8.238;2022-11-20T09:43:25;5.42;89.72
66213;SHT31;53015;50.046;8.238;2022-11-20T09:46:02;5.43;89.59
66213;SHT31;53015;50.046;8.238;2022-11-20T09:56:06;5.45;89.96
66213;SHT31;53015;50.046;8.238;2022-11-20T09:58:34;5.50;89.78
66213;SHT31;53015;50.046;8.238;2022-11-20T10:01:07;5.50;90.08
66213;SHT31;53015;50.046;8.238;2022-11-20T10:04:10;5.60;90.66
66213;SHT31;53015;50.046;8.238;2022-11-20T10:12:15;5.60;89.46
66213;SHT31;53015;50.046;8.238;2022-11-20T10:16:52;5.59;90.77
66213;SHT31;53015;50.046;8.238;2022-11-20T10:29:36;5.56;90.71
66213;SHT31;53015;50.046;8.238;2022-11-20T10:32:10;5.56;90.76
66213;SHT31;53015;50.046;8.238;2022-11-20T10:37:16;5.66;91.38
66213;SHT31;53015;50.046;8.238;2022-11-20T10:42:28;5.77;91.27
66213;SHT31;53015;50.046;8.238;2022-11-20T10:44:58;5.87;91.22
66213;SHT31;53015;50.046;8.238;2022-11-20T10:47:27;5.90;90.33
66213;SHT31;53015;50.046;8.238;2022-11-20T10:49:53;5.90;90.11
66213;SHT31;53015;50.046;8.238;2022-11-20T10:54:48;5.86;88.96
66213;SHT31;53015;50.046;8.238;2022-11-20T10:57:20;5.85;89.67
66213;SHT31;53015;50.046;8.238;2022-11-20T11:02:21;5.91;90.31
66213;SHT31;53015;50.046;8.238;2022-11-20T11:04:54;5.94;90.18
66213;SHT31;53015;50.046;8.238;2022-11-20T11:07:27;6.07;89.45
66213;SHT31;53015;50.046;8.238;2022-11-20T11:09:55;6.13;88.82
66213;SHT31;53015;50.046;8.238;2022-11-20T11:12:21;6.11;89.09
66213;SHT31;53015;50.046;8.238;2022-11-20T11:14:48;6.14;89.14
66213;SHT31;53015;50.046;8.238;2022-11-20T11:17:21;6.25;88.42
66213;SHT31;53015;50.046;8.238;2022-11-20T11:19:56;6.15;89.08
66213;SHT31;53015;50.046;8.238;2022-11-20T11:22:21;6.17;89.19
66213;SHT31;53015;50.046;8.238;2022-11-20T11:24:53;6.24;89.13
66213;SHT31;53015;50.046;8.238;2022-11-20T11:27:18;6.48;88.64
66213;SHT31;53015;50.046;8.238;2022-11-20T11:29:44;6.68;88.05
66213;SHT31;53015;50.046;8.238;2022-11-20T11:32:14;6.86;87.06
66213;SHT31;53015;50.046;8.238;2022-11-20T11:34:40;6.87;87.13
66213;SHT31;53015;50.046;8.238;2022-11-20T11:37:10;6.80;86.57
66213;SHT31;53015;50.046;8.238;2022-11-20T11:39:35;6.72;87.05
66213;SHT31;53015;50.046;8.238;2022-11-20T11:42:03;6.79;88.07
66213;SHT31;53015;50.046;8.238;2022-11-20T11:44:32;6.89;87.59
66213;SHT31;53015;50.046;8.238;2022-11-20T11:47:23;7.00;86.90
66213;SHT31;53015;50.046;8.238;2022-11-20T11:49:49;7.01;86.99
66213;SHT31;53015;50.046;8.238;2022-11-20T11:52:27;7.10;85.64
66213;SHT31;53015;50.046;8.238;2022-11-20T11:54:57;7.27;85.29
66213;SHT31;53015;50.046;8.238;2022-11-20T11:57:26;7.08;85.11
66213;SHT31;53015;50.046;8.238;2022-11-20T12:00:03;6.89;86.31
66213;SHT31;53015;50.046;8.238;2022-11-20T12:02:34;6.93;87.57
66213;SHT31;53015;50.046;8.238;2022-11-20T12:05:03;7.10;87.07
66213;SHT31;53015;50.046;8.238;2022-11-20T12:07:43;7.01;86.55
66213;SHT31;53015;50.046;8.238;2022-11-20T12:10:15;6.91;86.61
66213;SHT31;53015;50.046;8.238;2022-11-20T12:12:46;6.91;86.31
66213;SHT31;53015;50.046;8.238;2022-11-20T12:15:16;6.77;86.94
66213;SHT31;53015;50.046;8.238;2022-11-20T12:17:46;6.75;88.80
66213;SHT31;53015;50.046;8.238;2022-11-20T12:20:12;6.70;87.24
66213;SHT31;53015;50.046;8.238;2022-11-20T12:27:52;6.62;89.33
66213;SHT31;53015;50.046;8.238;2022-11-20T12:30:19;6.70;88.38
66213;SHT31;53015;50.046;8.238;2022-11-20T12:40:45;6.87;88.34
66213;SHT31;53015;50.046;8.238;2022-11-20T12:53:33;6.66;88.88
66213;SHT31;53015;50.046;8.238;2022-11-20T13:01:29;6.96;88.69
66213;SHT31;53015;50.046;8.238;2022-11-20T13:06:45;7.15;88.76
66213;SHT31;53015;50.046;8.238;2022-11-20T13:09:11;7.27;89.05
66213;SHT31;53015;50.046;8.238;2022-11-20T13:11:45;7.28;89.71
66213;SHT31;53015;50.046;8.238;2022-11-20T13:19:22;7.19;89.36
66213;SHT31;53015;50.046;8.238;2022-11-20T13:21:48;7.27;89.55
66213;SHT31;53015;50.046;8.238;2022-11-20T13:26:45;7.17;89.16
66213;SHT31;53015;50.046;8.238;2022-11-20T13:29:19;7.18;89.76
66213;SHT31;53015;50.046;8.238;2022-11-20T13:31:46;7.10;90.04
66213;SHT31;53015;50.046;8.238;2022-11-20T13:34:25;7.05;89.34
66213;SHT31;53015;50.046;8.238;2022-11-20T13:36:52;6.98;88.97
66213;SHT31;53015;50.046;8.238;2022-11-20T13:39:24;6.94;89.48
66213;SHT31;53015;50.046;8.238;2022-11-20T13:41:54;6.98;89.12
66213;SHT31;53015;50.046;8.238;2022-11-20T13:44:24;6.87;89.75
66213;SHT31;53015;50.046;8.238;2022-11-20T13:46:50;6.87;89.80
66213;SHT31;53015;50.046;8.238;2022-11-20T13:49:34;6.77;89.70
66213;SHT31;53015;50.046;8.238;2022-11-20T13:59:56;6.84;90.15
66213;SHT31;53015;50.046;8.238;2022-11-20T14:02:23;6.84;90.50
66213;SHT31;53015;50.046;8.238;2022-11-20T14:04:51;6.97;90.56
66213;SHT31;53015;50.046;8.238;2022-11-20T14:07:18;6.89;90.24
66213;SHT31;53015;50.046;8.238;2022-11-20T14:09:54;6.96;90.47
66213;SHT31;53015;50.046;8.238;2022-11-20T14:12:20;6.97;90.16
66213;SHT31;53015;50.046;8.238;2022-11-20T14:14:52;6.87;90.28
66213;SHT31;53015;50.046;8.238;2022-11-20T14:17:22;6.77;90.39
66213;SHT31;53015;50.046;8.238;2022-11-20T14:19:48;6.81;90.87
66213;SHT31;53015;50.046;8.238;2022-11-20T14:24:43;6.59;90.43
66213;SHT31;53015;50.046;8.238;2022-11-20T14:27:11;6.56;90.85
66213;SHT31;53015;50.046;8.238;2022-11-20T14:29:37;6.49;90.58
66213;SHT31;53015;50.046;8.238;2022-11-20T14:32:03;6.41;90.95
66213;SHT31;53015;50.046;8.238;2022-11-20T14:34:30;6.32;91.58
66213;SHT31;53015;50.046;8.238;2022-11-20T14:37:00;6.46;91.61
66213;SHT31;53015;50.046;8.238;2022-11-20T14:39:28;6.41;91.17
66213;SHT31;53015;50.046;8.238;2022-11-20T14:41:55;6.46;92.20
66213;SHT31;53015;50.046;8.238;2022-11-20T14:44:25;6.50;92.00
66213;SHT31;53015;50.046;8.238;2022-11-20T14:46:51;6.65;92.01
66213;SHT31;53015;50.046;8.238;2022-11-20T14:49:17;6.75;91.90
66213;SHT31;53015;50.046;8.238;2022-11-20T14:51:43;6.72;91.87
66213;SHT31;53015;50.046;8.238;2022-11-20T14:54:12;6.70;91.55
66213;SHT31;53015;50.046;8.238;2022-11-20T14:56:37;6.63;91.35
66213;SHT31;53015;50.046;8.238;2022-11-20T14:59:03;6.72;91.63
66213;SHT31;53015;50.046;8.238;2022-11-20T15:01:29;6.73;91.50
66213;SHT31;53015;50.046;8.238;2022-11-20T15:04:09;6.75;91.58
66213;SHT31;53015;50.046;8.238;2022-11-20T15:06:34;6.63;91.37
66213;SHT31;53015;50.046;8.238;2022-11-20T15:09:01;6.69;91.78
66213;SHT31;53015;50.046;8.238;2022-11-20T15:11:28;6.75;91.96
66213;SHT31;53015;50.046;8.238;2022-11-20T15:13:54;6.69;92.07
66213;SHT31;53015;50.046;8.238;2022-11-20T15:16:21;6.70;92.14
66213;SHT31;53015;50.046;8.238;2022-11-20T15:18:46;6.70;91.76
66213;SHT31;53015;50.046;8.238;2022-11-20T15:21:16;6.60;91.94
66213;SHT31;53015;50.046;8.238;2022-11-20T15:23:41;6.57;92.50
66213;SHT31;53015;50.046;8.238;2022-11-20T15:26:07;6.52;92.85
66213;SHT31;53015;50.046;8.238;2022-11-20T15:28:34;6.53;92.44
66213;SHT31;53015;50.046;8.238;2022-11-20T15:31:00;6.63;92.58
66213;SHT31;53015;50.046;8.238;2022-11-20T15:33:27;6.69;92.11
66213;SHT31;53015;50.046;8.238;2022-11-20T15:35:52;6.68;92.62
66213;SHT31;53015;50.046;8.238;2022-11-20T15:38:17;6.48;92.31
66213;SHT31;53015;50.046;8.238;2022-11-20T15:40:43;6.36;93.24
66213;SHT31;53015;50.046;8.238;2022-11-20T15:43:08;6.42;93.47
66213;SHT31;53015;50.046;8.238;2022-11-20T15:48:02;6.52;94.06
66213;SHT31;53015;50.046;8.238;2022-11-20T15:50:36;6.49;93.57
66213;SHT31;53015;50.046;8.238;2022-11-20T15:53:01;6.53;93.93
66213;SHT31;53015;50.046;8.238;2022-11-20T15:55:27;6.56;93.73
66213;SHT31;53015;50.046;8.238;2022-11-20T15:57:52;6.50;93.64
66213;SHT31;53015;50.046;8.238;2022-11-20T16:00:17;6.56;93.71
66213;SHT31;53015;50.046;8.238;2022-11-20T16:02:43;6.57;93.57
66213;SHT31;53015;50.046;8.238;2022-11-20T16:05:11;6.54;93.69
66213;SHT31;53015;50.046;8.238;2022-11-20T16:07:37;6.57;93.76
66213;SHT31;53015;50.046;8.238;2022-11-20T16:10:02;6.59;93.84
66213;SHT31;53015;50.046;8.238;2022-11-20T16:12:28;6.56;93.52
66213;SHT31;53015;50.046;8.238;2022-11-20T16:15:12;6.59;93.64
66213;SHT31;53015;50.046;8.238;2022-11-20T16:17:55;6.57;93.67
66213;SHT31;53015;50.046;8.238;2022-11-20T16:20:21;6.45;93.85
66213;SHT31;53015;50.046;8.238;2022-11-20T16:22:46;6.32;94.56
66213;SHT31;53015;50.046;8.238;2022-11-20T16:25:11;6.41;94.56
66213;SHT31;53015;50.046;8.238;2022-11-20T16:27:36;6.35;94.63
66213;SHT31;53015;50.046;8.238;2022-11-20T16:30:02;6.43;94.81
66213;SHT31;53015;50.046;8.238;2022-11-20T16:32:27;6.42;94.73
66213;SHT31;53015;50.046;8.238;2022-11-20T16:34:52;6.50;94.52
66213;SHT31;53015;50.046;8.238;2022-11-20T16:37:18;6.49;94.42
66213;SHT31;53015;50.046;8.238;2022-11-20T16:39:43;6.29;94.56
66213;SHT31;53015;50.046;8.238;2022-11-20T16:42:08;6.08;95.18
66213;SHT31;53015;50.046;8.238;2022-11-20T16:44:33;6.03;95.49
66213;SHT31;53015;50.046;8.238;2022-11-20T16:46:59;6.10;95.64
66213;SHT31;53015;50.046;8.238;2022-11-20T16:49:24;6.15;95.78
66213;SHT31;53015;50.046;8.238;2022-11-20T16:51:50;6.29;95.58
66213;SHT31;53015;50.046;8.238;2022-11-20T16:54:15;6.21;95.27
66213;SHT31;53015;50.046;8.238;2022-11-20T16:56:41;6.32;95.40
66213;SHT31;53015;50.046;8.238;2022-11-20T16:59:06;6.31;95.45
66213;SHT31;53015;50.046;8.238;2022-11-20T17:01:32;6.26;95.11
66213;SHT31;53015;50.046;8.238;2022-11-20T17:04:04;6.20;95.37
66213;SHT31;53015;50.046;8.238;2022-11-20T17:06:33;6.24;95.11
66213;SHT31;53015;50.046;8.238;2022-11-20T17:08:59;6.28;95.59
66213;SHT31;53015;50.046;8.238;2022-11-20T17:11:25;6.32;95.24
66213;SHT31;53015;50.046;8.238;2022-11-20T17:13:51;6.35;95.34
66213;SHT31;53015;50.046;8.238;2022-11-20T17:16:21;6.42;95.19
66213;SHT31;53015;50.046;8.238;2022-11-20T17:18:46;6.49;95.18